sensor_id;sensor_type;location;lat;lon;timestamp;P1;durP1;ratioP1;P2;durP2;ratioP2
37169;SDS011;23062;13.952;100.608;2022-12-18T00:01:23;10.00;;;7.00;;
37169;SDS011;23062;13.952;100.608;2022-12-18T00:05:56;8.00;;;6.00;;
37169;SDS011;23062;13.952;100.608;2022-12-18T00:10:22;8.00;;;6.00;;
37169;SDS011;23062;13.952;100.608;2022-12-18T00:14:48;8.00;;;6.00;;
37169;SDS011;23062;13.952;100.608;2022-12-18T00:19:16;9.00;;;7.00;;
37169;SDS011;23062;13.952;100.608;2022-12-18T00:23:43;9.00;;;5.60;;
37169;SDS011;23062;13.952;100.608;2022-12-18T00:28:09;10.00;;;7.00;;
37169;SDS011;23062;13.952;100.608;2022-12-18T00:32:37;9.00;;;6.00;;
37169;SDS011;23062;13.952;100.608;2022-12-18T00:37:03;9.00;;;7.00;;
37169;SDS011;23062;13.952;100.608;2022-12-18T00:41:31;12.00;;;8.00;;
37169;SDS011;23062;13.952;100.608;2022-12-18T00:46:22;10.00;;;7.00;;
37169;SDS011;23062;13.952;100.608;2022-12-18T00:50:49;13.00;;;9.00;;
37169;SDS011;23062;13.952;100.608;2022-12-18T00:55:15;9.00;;;7.00;;
37169;SDS011;23062;13.952;100.608;2022-12-18T00:59:44;12.00;;;8.00;;
37169;SDS011;23062;13.952;100.608;2022-12-18T01:04:09;8.00;;;6.00;;
37169;SDS011;23062;13.952;100.608;2022-12-18T01:08:35;11.00;;;8.00;;
37169;SDS011;23062;13.952;100.608;2022-12-18T01:13:01;12.00;;;9.00;;
37169;SDS011;23062;13.952;100.608;2022-12-18T01:17:27;13.00;;;9.00;;
37169;SDS011;23062;13.952;100.608;2022-12-18T01:21:56;10.00;;;7.00;;
37169;SDS011;23062;13.952;100.608;2022-12-18T01:26:28;10.00;;;7.00;;
37169;SDS011;23062;13.952;100.608;2022-12-18T01:30:54;11.00;;;8.00;;
37169;SDS011;23062;13.952;100.608;2022-12-18T01:35:26;13.00;;;9.00;;
37169;SDS011;23062;13.952;100.608;2022-12-18T01:39:52;10.00;;;7.00;;
37169;SDS011;23062;13.952;100.608;2022-12-18T01:49:29;10.00;;;7.00;;
37169;SDS011;23062;13.952;100.608;2022-12-18T01:53:55;11.00;;;8.00;;
37169;SDS011;23062;13.952;100.608;2022-12-18T01:58:27;12.00;;;9.00;;
37169;SDS011;23062;13.952;100.608;2022-12-18T02:03:07;9.00;;;6.00;;
37169;SDS011;23062;13.952;100.608;2022-12-18T02:17:14;10.00;;;7.00;;
37169;SDS011;23062;13.952;100.608;2022-12-18T02:26:19;13.00;;;9.00;;
37169;SDS011;23062;13.952;100.608;2022-12-18T02:30:51;10.00;;;7.00;;
37169;SDS011;23062;13.952;100.608;2022-12-18T02:35:22;11.00;;;8.00;;
37169;SDS011;23062;13.952;100.608;2022-12-18T02:39:49;11.00;;;8.00;;
37169;SDS011;23062;13.952;100.608;2022-12-18T02:44:16;10.00;;;7.00;;
37169;SDS011;23062;13.952;100.608;2022-12-18T02:48:43;9.00;;;7.00;;
37169;SDS011;23062;13.952;100.608;2022-12-18T03:02:39;9.00;;;7.00;;
37169;SDS011;23062;13.952;100.608;2022-12-18T03:07:21;11.00;;;8.00;;
37169;SDS011;23062;13.952;100.608;2022-12-18T03:11:43;9.00;;;7.00;;
37169;SDS011;23062;13.952;100.608;2022-12-18T03:16:29;9.00;;;5.60;;
37169;SDS011;23062;13.952;100.608;2022-12-18T03:20:58;9.00;;;6.00;;
37169;SDS011;23062;13.952;100.608;2022-12-18T03:25:26;7.00;;;5.00;;
37169;SDS011;23062;13.952;100.608;2022-12-18T03:30:03;10.00;;;7.00;;
37169;SDS011;23062;13.952;100.608;2022-12-18T03:34:30;10.00;;;7.00;;
37169;SDS011;23062;13.952;100.608;2022-12-18T03:38:57;11.00;;;7.00;;
37169;SDS011;23062;13.952;100.608;2022-12-18T03:43:42;9.00;;;6.00;;
37169;SDS011;23062;13.952;100.608;2022-12-18T03:48:35;8.00;;;6.00;;
37169;SDS011;23062;13.952;100.608;2022-12-18T03:57:21;8.00;;;6.00;;
37169;SDS011;23062;13.952;100.608;2022-12-18T04:01:49;10.00;;;7.00;;
37169;SDS011;23062;13.952;100.608;2022-12-18T04:06:17;8.00;;;5.60;;
37169;SDS011;23062;13.952;100.608;2022-12-18T04:10:42;10.00;;;7.00;;
37169;SDS011;23062;13.952;100.608;2022-12-18T04:15:08;9.00;;;7.00;;
37169;SDS011;23062;13.952;100.608;2022-12-18T04:19:36;7.00;;;5.00;;
37169;SDS011;23062;13.952;100.608;2022-12-18T04:24:08;7.00;;;5.00;;
37169;SDS011;23062;13.952;100.608;2022-12-18T04:28:34;10.00;;;7.00;;
37169;SDS011;23062;13.952;100.608;2022-12-18T04:33:00;10.00;;;7.00;;
37169;SDS011;23062;13.952;100.608;2022-12-18T04:37:26;9.00;;;6.00;;
37169;SDS011;23062;13.952;100.608;2022-12-18T04:41:51;10.00;;;8.00;;
37169;SDS011;23062;13.952;100.608;2022-12-18T04:46:16;12.00;;;8.00;;
37169;SDS011;23062;13.952;100.608;2022-12-18T04:50:41;10.00;;;7.00;;
37169;SDS011;23062;13.952;100.608;2022-12-18T04:55:07;10.00;;;7.00;;
37169;SDS011;23062;13.952;100.608;2022-12-18T04:59:33;9.00;;;6.00;;
37169;SDS011;23062;13.952;100.608;2022-12-18T05:03:58;12.00;;;8.00;;
37169;SDS011;23062;13.952;100.608;2022-12-18T05:08:24;11.00;;;8.00;;
37169;SDS011;23062;13.952;100.608;2022-12-18T05:12:52;11.00;;;8.00;;
37169;SDS011;23062;13.952;100.608;2022-12-18T05:17:24;13.00;;;8.40;;
37169;SDS011;23062;13.952;100.608;2022-12-18T05:21:52;8.00;;;6.00;;
37169;SDS011;23062;13.952;100.608;2022-12-18T05:26:18;11.00;;;8.00;;
37169;SDS011;23062;13.952;100.608;2022-12-18T05:30:53;12.00;;;8.00;;
37169;SDS011;23062;13.952;100.608;2022-12-18T05:35:13;12.00;;;8.00;;
37169;SDS011;23062;13.952;100.608;2022-12-18T05:39:39;8.00;;;6.00;;
37169;SDS011;23062;13.952;100.608;2022-12-18T05:44:05;8.00;;;6.00;;
37169;SDS011;23062;13.952;100.608;2022-12-18T05:48:30;10.00;;;8.00;;
37169;SDS011;23062;13.952;100.608;2022-12-18T05:53:04;10.00;;;7.00;;
37169;SDS011;23062;13.952;100.608;2022-12-18T05:57:30;9.00;;;7.00;;
37169;SDS011;23062;13.952;100.608;2022-12-18T06:01:56;11.00;;;6.53;;
37169;SDS011;23062;13.952;100.608;2022-12-18T06:06:29;10.00;;;7.00;;
37169;SDS011;23062;13.952;100.608;2022-12-18T06:10:54;10.00;;;7.00;;
37169;SDS011;23062;13.952;100.608;2022-12-18T06:15:22;10.00;;;7.00;;
37169;SDS011;23062;13.952;100.608;2022-12-18T06:19:47;9.00;;;6.00;;
37169;SDS011;23062;13.952;100.608;2022-12-18T06:24:14;10.00;;;7.00;;
37169;SDS011;23062;13.952;100.608;2022-12-18T06:28:40;10.00;;;7.00;;
37169;SDS011;23062;13.952;100.608;2022-12-18T06:33:09;8.00;;;6.00;;
37169;SDS011;23062;13.952;100.608;2022-12-18T06:37:34;12.00;;;9.00;;
37169;SDS011;23062;13.952;100.608;2022-12-18T06:41:59;11.00;;;8.00;;
37169;SDS011;23062;13.952;100.608;2022-12-18T06:46:28;10.00;;;7.00;;
37169;SDS011;23062;13.952;100.608;2022-12-18T06:50:56;11.00;;;7.00;;
37169;SDS011;23062;13.952;100.608;2022-12-18T06:55:23;9.00;;;7.00;;
37169;SDS011;23062;13.952;100.608;2022-12-18T06:59:49;9.00;;;7.00;;
37169;SDS011;23062;13.952;100.608;2022-12-18T07:04:14;10.00;;;7.00;;
37169;SDS011;23062;13.952;100.608;2022-12-18T07:08:40;6.00;;;4.00;;
37169;SDS011;23062;13.952;100.608;2022-12-18T07:13:09;13.00;;;9.00;;
37169;SDS011;23062;13.952;100.608;2022-12-18T07:17:34;13.00;;;9.00;;
37169;SDS011;23062;13.952;100.608;2022-12-18T07:22:03;10.00;;;7.00;;
37169;SDS011;23062;13.952;100.608;2022-12-18T07:26:28;9.00;;;6.00;;
37169;SDS011;23062;13.952;100.608;2022-12-18T07:30:57;14.00;;;10.00;;
37169;SDS011;23062;13.952;100.608;2022-12-18T07:35:24;7.00;;;5.00;;
37169;SDS011;23062;13.952;100.608;2022-12-18T07:39:57;8.00;;;6.00;;
37169;SDS011;23062;13.952;100.608;2022-12-18T07:44:22;11.00;;;8.00;;
37169;SDS011;23062;13.952;100.608;2022-12-18T07:48:47;10.00;;;7.00;;
37169;SDS011;23062;13.952;100.608;2022-12-18T07:53:13;10.00;;;7.00;;
37169;SDS011;23062;13.952;100.608;2022-12-18T07:57:39;11.00;;;7.00;;
37169;SDS011;23062;13.952;100.608;2022-12-18T08:02:04;11.00;;;8.00;;
37169;SDS011;23062;13.952;100.608;2022-12-18T08:06:32;9.00;;;6.00;;
37169;SDS011;23062;13.952;100.608;2022-12-18T08:10:58;12.00;;;9.00;;
37169;SDS011;23062;13.952;100.608;2022-12-18T08:15:23;9.00;;;6.00;;
37169;SDS011;23062;13.952;100.608;2022-12-18T08:19:49;10.00;;;7.00;;
37169;SDS011;23062;13.952;100.608;2022-12-18T08:24:14;11.00;;;8.00;;
37169;SDS011;23062;13.952;100.608;2022-12-18T08:28:40;9.00;;;7.00;;
37169;SDS011;23062;13.952;100.608;2022-12-18T08:33:05;9.00;;;6.00;;
37169;SDS011;23062;13.952;100.608;2022-12-18T08:37:31;12.00;;;8.00;;
37169;SDS011;23062;13.952;100.608;2022-12-18T08:41:56;11.00;;;8.00;;
37169;SDS011;23062;13.952;100.608;2022-12-18T08:46:39;11.00;;;8.00;;
37169;SDS011;23062;13.952;100.608;2022-12-18T08:51:05;11.00;;;8.00;;
37169;SDS011;23062;13.952;100.608;2022-12-18T08:55:32;11.00;;;8.00;;
37169;SDS011;23062;13.952;100.608;2022-12-18T08:59:58;15.00;;;11.00;;
37169;SDS011;23062;13.952;100.608;2022-12-18T09:04:24;9.00;;;7.00;;
37169;SDS011;23062;13.952;100.608;2022-12-18T09:08:49;11.00;;;8.00;;
37169;SDS011;23062;13.952;100.608;2022-12-18T09:13:15;13.00;;;9.00;;
37169;SDS011;23062;13.952;100.608;2022-12-18T09:17:40;11.00;;;8.00;;
37169;SDS011;23062;13.952;100.608;2022-12-18T09:22:06;13.00;;;9.00;;
37169;SDS011;23062;13.952;100.608;2022-12-18T09:26:32;14.00;;;10.00;;
37169;SDS011;23062;13.952;100.608;2022-12-18T09:31:03;12.00;;;8.00;;
37169;SDS011;23062;13.952;100.608;2022-12-18T09:35:30;11.00;;;7.00;;
37169;SDS011;23062;13.952;100.608;2022-12-18T09:39:56;13.00;;;9.00;;
37169;SDS011;23062;13.952;100.608;2022-12-18T09:44:30;13.00;;;10.00;;
37169;SDS011;23062;13.952;100.608;2022-12-18T09:49:07;12.00;;;9.00;;
37169;SDS011;23062;13.952;100.608;2022-12-18T09:53:34;11.00;;;8.00;;
37169;SDS011;23062;13.952;100.608;2022-12-18T09:58:04;13.00;;;9.00;;
37169;SDS011;23062;13.952;100.608;2022-12-18T10:02:30;13.00;;;9.00;;
37169;SDS011;23062;13.952;100.608;2022-12-18T10:07:03;10.00;;;7.00;;
37169;SDS011;23062;13.952;100.608;2022-12-18T10:16:26;14.00;;;10.00;;
37169;SDS011;23062;13.952;100.608;2022-12-18T10:20:52;15.00;;;11.00;;
37169;SDS011;23062;13.952;100.608;2022-12-18T10:25:25;14.00;;;11.00;;
37169;SDS011;23062;13.952;100.608;2022-12-18T10:29:54;12.00;;;9.00;;
37169;SDS011;23062;13.952;100.608;2022-12-18T10:34:21;16.00;;;12.00;;
37169;SDS011;23062;13.952;100.608;2022-12-18T10:38:47;13.00;;;9.00;;
37169;SDS011;23062;13.952;100.608;2022-12-18T10:43:16;14.00;;;10.00;;
37169;SDS011;23062;13.952;100.608;2022-12-18T10:47:46;13.00;;;9.00;;
37169;SDS011;23062;13.952;100.608;2022-12-18T10:56:46;17.00;;;12.00;;
37169;SDS011;23062;13.952;100.608;2022-12-18T11:01:15;13.00;;;10.00;;
37169;SDS011;23062;13.952;100.608;2022-12-18T11:05:44;14.00;;;10.00;;
37169;SDS011;23062;13.952;100.608;2022-12-18T11:10:14;14.00;;;10.00;;
37169;SDS011;23062;13.952;100.608;2022-12-18T11:23:58;17.00;;;12.00;;
37169;SDS011;23062;13.952;100.608;2022-12-18T11:32:54;15.00;;;11.00;;
37169;SDS011;23062;13.952;100.608;2022-12-18T11:37:32;16.00;;;12.00;;
37169;SDS011;23062;13.952;100.608;2022-12-18T11:42:05;17.00;;;12.00;;
37169;SDS011;23062;13.952;100.608;2022-12-18T11:46:39;21.00;;;15.00;;
37169;SDS011;23062;13.952;100.608;2022-12-18T11:51:08;16.00;;;11.00;;
37169;SDS011;23062;13.952;100.608;2022-12-18T12:00:15;16.00;;;12.00;;
37169;SDS011;23062;13.952;100.608;2022-12-18T12:09:18;19.00;;;14.00;;
37169;SDS011;23062;13.952;100.608;2022-12-18T12:13:53;18.00;;;13.00;;
37169;SDS011;23062;13.952;100.608;2022-12-18T12:28:04;16.00;;;11.00;;
37169;SDS011;23062;13.952;100.608;2022-12-18T12:32:31;19.00;;;14.00;;
37169;SDS011;23062;13.952;100.608;2022-12-18T12:37:03;20.00;;;15.00;;
37169;SDS011;23062;13.952;100.608;2022-12-18T12:41:42;20.00;;;15.00;;
37169;SDS011;23062;13.952;100.608;2022-12-18T12:46:31;18.00;;;14.00;;
37169;SDS011;23062;13.952;100.608;2022-12-18T12:51:03;16.00;;;12.00;;
37169;SDS011;23062;13.952;100.608;2022-12-18T12:55:27;16.00;;;12.00;;
37169;SDS011;23062;13.952;100.608;2022-12-18T13:04:34;20.00;;;14.00;;
37169;SDS011;23062;13.952;100.608;2022-12-18T13:09:02;19.00;;;13.07;;
37169;SDS011;23062;13.952;100.608;2022-12-18T13:13:40;17.00;;;12.00;;
37169;SDS011;23062;13.952;100.608;2022-12-18T13:22:42;16.00;;;12.00;;
37169;SDS011;23062;13.952;100.608;2022-12-18T13:40:54;14.00;;;11.00;;
37169;SDS011;23062;13.952;100.608;2022-12-18T13:45:37;16.00;;;12.00;;
37169;SDS011;23062;13.952;100.608;2022-12-18T13:50:21;16.00;;;12.00;;
37169;SDS011;23062;13.952;100.608;2022-12-18T13:54:45;16.00;;;11.00;;
37169;SDS011;23062;13.952;100.608;2022-12-18T13:59:13;15.00;;;11.00;;
37169;SDS011;23062;13.952;100.608;2022-12-18T14:04:11;17.00;;;12.00;;
37169;SDS011;23062;13.952;100.608;2022-12-18T14:08:38;14.00;;;10.00;;
37169;SDS011;23062;13.952;100.608;2022-12-18T14:13:05;15.00;;;12.00;;
37169;SDS011;23062;13.952;100.608;2022-12-18T14:17:32;15.00;;;11.00;;
37169;SDS011;23062;13.952;100.608;2022-12-18T14:21:59;13.00;;;8.40;;
37169;SDS011;23062;13.952;100.608;2022-12-18T14:26:28;15.00;;;10.00;;
37169;SDS011;23062;13.952;100.608;2022-12-18T14:30:54;15.00;;;11.20;;
37169;SDS011;23062;13.952;100.608;2022-12-18T14:35:20;15.00;;;10.00;;
37169;SDS011;23062;13.952;100.608;2022-12-18T14:40:00;15.00;;;11.00;;
37169;SDS011;23062;13.952;100.608;2022-12-18T14:44:23;13.00;;;9.00;;
37169;SDS011;23062;13.952;100.608;2022-12-18T14:48:55;15.00;;;11.00;;
37169;SDS011;23062;13.952;100.608;2022-12-18T14:53:47;16.00;;;12.00;;
37169;SDS011;23062;13.952;100.608;2022-12-18T14:58:02;15.00;;;11.00;;
37169;SDS011;23062;13.952;100.608;2022-12-18T15:02:27;15.00;;;11.00;;
37169;SDS011;23062;13.952;100.608;2022-12-18T15:11:47;16.00;;;11.00;;
37169;SDS011;23062;13.952;100.608;2022-12-18T15:16:15;17.00;;;13.00;;
37169;SDS011;23062;13.952;100.608;2022-12-18T15:20:43;17.00;;;12.00;;
37169;SDS011;23062;13.952;100.608;2022-12-18T15:25:23;16.00;;;12.00;;
37169;SDS011;23062;13.952;100.608;2022-12-18T15:30:00;14.00;;;10.00;;
37169;SDS011;23062;13.952;100.608;2022-12-18T15:34:31;17.00;;;12.00;;
37169;SDS011;23062;13.952;100.608;2022-12-18T15:38:59;15.00;;;11.00;;
37169;SDS011;23062;13.952;100.608;2022-12-18T15:43:24;16.00;;;11.00;;
37169;SDS011;23062;13.952;100.608;2022-12-18T15:47:57;14.00;;;10.00;;
37169;SDS011;23062;13.952;100.608;2022-12-18T15:52:22;14.00;;;11.00;;
37169;SDS011;23062;13.952;100.608;2022-12-18T15:56:48;17.00;;;13.00;;
37169;SDS011;23062;13.952;100.608;2022-12-18T16:01:35;13.00;;;10.00;;
37169;SDS011;23062;13.952;100.608;2022-12-18T16:06:00;15.00;;;11.00;;
37169;SDS011;23062;13.952;100.608;2022-12-18T16:10:26;12.00;;;9.00;;
37169;SDS011;23062;13.952;100.608;2022-12-18T16:14:51;12.00;;;8.00;;
37169;SDS011;23062;13.952;100.608;2022-12-18T16:19:18;14.00;;;11.00;;
37169;SDS011;23062;13.952;100.608;2022-12-18T16:23:44;15.00;;;11.00;;
37169;SDS011;23062;13.952;100.608;2022-12-18T16:28:09;13.00;;;10.00;;
37169;SDS011;23062;13.952;100.608;2022-12-18T16:32:34;13.00;;;9.00;;
37169;SDS011;23062;13.952;100.608;2022-12-18T16:37:00;13.00;;;10.00;;
37169;SDS011;23062;13.952;100.608;2022-12-18T16:41:27;12.00;;;9.00;;
37169;SDS011;23062;13.952;100.608;2022-12-18T16:45:58;16.00;;;12.00;;
37169;SDS011;23062;13.952;100.608;2022-12-18T16:50:23;13.00;;;9.00;;
37169;SDS011;23062;13.952;100.608;2022-12-18T16:54:48;14.00;;;10.00;;
37169;SDS011;23062;13.952;100.608;2022-12-18T16:59:17;14.00;;;10.00;;
37169;SDS011;23062;13.952;100.608;2022-12-18T17:03:50;13.00;;;9.00;;
37169;SDS011;23062;13.952;100.608;2022-12-18T17:08:16;12.00;;;9.00;;
37169;SDS011;23062;13.952;100.608;2022-12-18T17:12:44;9.00;;;7.00;;
37169;SDS011;23062;13.952;100.608;2022-12-18T17:17:09;16.00;;;11.00;;
37169;SDS011;23062;13.952;100.608;2022-12-18T17:21:34;15.00;;;11.00;;
37169;SDS011;23062;13.952;100.608;2022-12-18T17:26:00;14.00;;;10.00;;
37169;SDS011;23062;13.952;100.608;2022-12-18T17:30:28;13.00;;;9.00;;
37169;SDS011;23062;13.952;100.608;2022-12-18T17:34:57;14.00;;;11.00;;
37169;SDS011;23062;13.952;100.608;2022-12-18T17:39:22;15.00;;;11.00;;
37169;SDS011;23062;13.952;100.608;2022-12-18T17:43:54;16.00;;;11.00;;
37169;SDS011;23062;13.952;100.608;2022-12-18T17:48:21;11.00;;;8.00;;
37169;SDS011;23062;13.952;100.608;2022-12-18T17:52:46;13.00;;;10.00;;
37169;SDS011;23062;13.952;100.608;2022-12-18T17:57:12;13.00;;;10.00;;
37169;SDS011;23062;13.952;100.608;2022-12-18T18:01:37;13.00;;;9.00;;
37169;SDS011;23062;13.952;100.608;2022-12-18T18:06:02;13.00;;;9.00;;
37169;SDS011;23062;13.952;100.608;2022-12-18T18:10:28;12.00;;;9.00;;
37169;SDS011;23062;13.952;100.608;2022-12-18T18:14:57;12.00;;;9.00;;
37169;SDS011;23062;13.952;100.608;2022-12-18T18:19:22;13.00;;;10.00;;
37169;SDS011;23062;13.952;100.608;2022-12-18T18:23:49;13.00;;;9.00;;
37169;SDS011;23062;13.952;100.608;2022-12-18T18:28:16;12.00;;;8.00;;
37169;SDS011;23062;13.952;100.608;2022-12-18T18:32:41;12.00;;;9.00;;
37169;SDS011;23062;13.952;100.608;2022-12-18T18:37:07;11.00;;;8.00;;
37169;SDS011;23062;13.952;100.608;2022-12-18T18:41:33;9.00;;;7.00;;
37169;SDS011;23062;13.952;100.608;2022-12-18T18:45:59;10.00;;;8.00;;
37169;SDS011;23062;13.952;100.608;2022-12-18T18:50:27;11.00;;;8.00;;
37169;SDS011;23062;13.952;100.608;2022-12-18T18:54:52;13.00;;;9.00;;
37169;SDS011;23062;13.952;100.608;2022-12-18T18:59:20;12.00;;;9.00;;
37169;SDS011;23062;13.952;100.608;2022-12-18T19:03:47;11.00;;;8.00;;
37169;SDS011;23062;13.952;100.608;2022-12-18T19:08:13;10.00;;;7.00;;
37169;SDS011;23062;13.952;100.608;2022-12-18T19:12:39;13.00;;;9.00;;
37169;SDS011;23062;13.952;100.608;2022-12-18T19:17:23;12.00;;;9.00;;
37169;SDS011;23062;13.952;100.608;2022-12-18T19:21:48;9.00;;;7.00;;
37169;SDS011;23062;13.952;100.608;2022-12-18T19:26:17;12.00;;;9.00;;
37169;SDS011;23062;13.952;100.608;2022-12-18T19:30:42;11.00;;;8.00;;
37169;SDS011;23062;13.952;100.608;2022-12-18T19:35:08;11.00;;;8.00;;
37169;SDS011;23062;13.952;100.608;2022-12-18T19:39:34;10.00;;;7.00;;
37169;SDS011;23062;13.952;100.608;2022-12-18T19:43:59;10.00;;;7.00;;
37169;SDS011;23062;13.952;100.608;2022-12-18T19:48:24;11.00;;;8.00;;
37169;SDS011;23062;13.952;100.608;2022-12-18T19:52:50;10.00;;;7.00;;
37169;SDS011;23062;13.952;100.608;2022-12-18T19:57:15;9.00;;;6.00;;
37169;SDS011;23062;13.952;100.608;2022-12-18T20:01:41;10.00;;;7.00;;
37169;SDS011;23062;13.952;100.608;2022-12-18T20:06:22;7.00;;;5.00;;
37169;SDS011;23062;13.952;100.608;2022-12-18T20:10:59;8.00;;;5.00;;
37169;SDS011;23062;13.952;100.608;2022-12-18T20:15:24;8.00;;;5.00;;
37169;SDS011;23062;13.952;100.608;2022-12-18T20:19:49;10.00;;;7.00;;
37169;SDS011;23062;13.952;100.608;2022-12-18T20:24:14;10.00;;;7.00;;
37169;SDS011;23062;13.952;100.608;2022-12-18T20:28:39;9.00;;;6.00;;
37169;SDS011;23062;13.952;100.608;2022-12-18T20:33:05;6.00;;;4.00;;
37169;SDS011;23062;13.952;100.608;2022-12-18T20:37:30;9.00;;;6.00;;
37169;SDS011;23062;13.952;100.608;2022-12-18T20:41:56;7.00;;;5.00;;
37169;SDS011;23062;13.952;100.608;2022-12-18T20:46:23;8.00;;;6.00;;
37169;SDS011;23062;13.952;100.608;2022-12-18T20:50:56;7.00;;;5.00;;
37169;SDS011;23062;13.952;100.608;2022-12-18T20:55:24;9.00;;;6.00;;
37169;SDS011;23062;13.952;100.608;2022-12-18T20:59:51;9.00;;;6.00;;
37169;SDS011;23062;13.952;100.608;2022-12-18T21:04:16;8.00;;;6.00;;
37169;SDS011;23062;13.952;100.608;2022-12-18T21:08:42;8.00;;;5.00;;
37169;SDS011;23062;13.952;100.608;2022-12-18T21:13:08;10.00;;;7.00;;
37169;SDS011;23062;13.952;100.608;2022-12-18T21:17:34;9.00;;;6.00;;
37169;SDS011;23062;13.952;100.608;2022-12-18T21:21:59;7.00;;;5.00;;
37169;SDS011;23062;13.952;100.608;2022-12-18T21:26:25;9.00;;;6.00;;
37169;SDS011;23062;13.952;100.608;2022-12-18T21:30:51;7.00;;;5.00;;
37169;SDS011;23062;13.952;100.608;2022-12-18T21:35:17;7.00;;;5.00;;
37169;SDS011;23062;13.952;100.608;2022-12-18T21:39:42;6.00;;;4.00;;
37169;SDS011;23062;13.952;100.608;2022-12-18T21:44:10;7.00;;;5.00;;
37169;SDS011;23062;13.952;100.608;2022-12-18T21:48:39;7.00;;;5.00;;
37169;SDS011;23062;13.952;100.608;2022-12-18T21:53:04;6.00;;;4.00;;
37169;SDS011;23062;13.952;100.608;2022-12-18T21:57:31;7.00;;;5.00;;
37169;SDS011;23062;13.952;100.608;2022-12-18T22:02:00;9.00;;;6.00;;
37169;SDS011;23062;13.952;100.608;2022-12-18T22:06:24;9.00;;;6.00;;
37169;SDS011;23062;13.952;100.608;2022-12-18T22:10:50;8.00;;;5.00;;
37169;SDS011;23062;13.952;100.608;2022-12-18T22:15:15;12.00;;;8.00;;
37169;SDS011;23062;13.952;100.608;2022-12-18T22:19:40;9.00;;;6.00;;
37169;SDS011;23062;13.952;100.608;2022-12-18T22:24:15;8.00;;;6.00;;
37169;SDS011;23062;13.952;100.608;2022-12-18T22:28:45;10.00;;;7.00;;
37169;SDS011;23062;13.952;100.608;2022-12-18T22:33:29;8.00;;;6.00;;
37169;SDS011;23062;13.952;100.608;2022-12-18T22:37:56;9.00;;;6.00;;
37169;SDS011;23062;13.952;100.608;2022-12-18T22:42:22;13.00;;;9.00;;
37169;SDS011;23062;13.952;100.608;2022-12-18T22:46:51;9.00;;;7.00;;
37169;SDS011;23062;13.952;100.608;2022-12-18T22:51:19;9.00;;;6.00;;
37169;SDS011;23062;13.952;100.608;2022-12-18T22:55:45;10.00;;;7.00;;
37169;SDS011;23062;13.952;100.608;2022-12-18T23:00:11;10.00;;;7.00;;
37169;SDS011;23062;13.952;100.608;2022-12-18T23:04:37;10.00;;;7.00;;
37169;SDS011;23062;13.952;100.608;2022-12-18T23:09:03;8.00;;;6.00;;
37169;SDS011;23062;13.952;100.608;2022-12-18T23:13:31;8.00;;;6.00;;
37169;SDS011;23062;13.952;100.608;2022-12-18T23:17:58;9.00;;;6.00;;
37169;SDS011;23062;13.952;100.608;2022-12-18T23:22:23;9.00;;;5.60;;
37169;SDS011;23062;13.952;100.608;2022-12-18T23:26:51;8.00;;;6.00;;
37169;SDS011;23062;13.952;100.608;2022-12-18T23:31:18;7.00;;;5.00;;
37169;SDS011;23062;13.952;100.608;2022-12-18T23:35:56;7.00;;;5.00;;
37169;SDS011;23062;13.952;100.608;2022-12-18T23:40:22;8.00;;;5.00;;
37169;SDS011;23062;13.952;100.608;2022-12-18T23:44:49;8.00;;;5.00;;
37169;SDS011;23062;13.952;100.608;2022-12-18T23:49:16;8.00;;;5.00;;
37169;SDS011;23062;13.952;100.608;2022-12-18T23:53:43;7.00;;;5.00;;
37169;SDS011;23062;13.952;100.608;2022-12-18T23:58:20;9.00;;;7.00;;
